Time;durP1;ratioP1;P1;durP2;ratioP2;P2;SDS_P1;SDS_P2;PMS_P1;PMS_P2;Temp;Humidity;BMP_temperature;BMP_pressure;BME280_temperature;BME280_humidity;BME280_pressure;Samples;Min_cycle;Max_cycle;Signal;HPM_P1;HPM_P2
2024/01/09 00:00:45;;;;;;;;;0.00;0.00;;;;;1.29;100.00;102391.75;5081243;28;46218;-95
2024/01/09 00:03:11;;;;;;;;;0.00;0.00;;;;;1.29;100.00;102388.34;5081100;28;45349;-94
2024/01/09 00:05:36;;;;;;;;;0.00;0.00;;;;;1.28;100.00;102386.56;5063138;28;45333;-95
2024/01/09 00:08:02;;;;;;;;;0.00;0.00;;;;;1.27;100.00;102385.69;5080681;28;45468;-94
2024/01/09 00:10:27;;;;;;;;;0.00;0.00;;;;;1.25;100.00;102381.34;5079549;28;46872;-95
2024/01/09 00:12:52;;;;;;;;;0.00;0.00;;;;;1.25;100.00;102386.47;5062717;28;55397;-95
2024/01/09 00:15:18;;;;;;;;;0.00;0.00;;;;;1.25;100.00;102391.63;5063201;28;45444;-95
2024/01/09 00:17:43;;;;;;;;;0.00;0.00;;;;;1.21;100.00;102387.16;5063409;28;45295;-96
2024/01/09 00:20:09;;;;;;;;;0.00;0.00;;;;;1.22;100.00;102388.94;5062947;28;46064;-96
2024/01/09 00:22:35;;;;;;;;;0.00;0.00;;;;;1.20;100.00;102376.03;5052178;28;45251;-96
2024/01/09 00:25:00;;;;;;;;;2.00;2.00;;;;;1.17;100.00;102375.94;5043242;28;45552;-95
2024/01/09 00:27:25;;;;;;;;;0.00;0.00;;;;;1.17;100.00;102373.38;5042138;28;54055;-95
2024/01/09 00:29:51;;;;;;;;;0.00;0.00;;;;;1.19;100.00;102369.19;5073377;28;58132;-95
2024/01/09 00:32:16;;;;;;;;;0.00;0.00;;;;;1.21;100.00;102375.22;5073825;28;45301;-96
2024/01/09 00:34:42;;;;;;;;;0.00;0.00;;;;;1.22;100.00;102365.84;5079260;28;62551;-96
2024/01/09 00:37:07;;;;;;;;;0.00;0.00;;;;;1.21;100.00;102358.94;5080992;28;45345;-96
2024/01/09 00:39:32;;;;;;;;;0.00;0.00;;;;;1.21;100.00;102364.97;5079245;28;45359;-96
2024/01/09 00:41:58;;;;;;;;;0.00;0.00;;;;;1.20;100.00;102354.66;5078805;28;45635;-96
2024/01/09 00:44:23;;;;;;;;;0.00;0.00;;;;;1.22;100.00;102353.88;5081348;27;45262;-96
2024/01/09 00:46:48;;;;;;;;;0.00;0.00;;;;;1.19;100.00;102347.75;5089807;28;70513;-95
2024/01/09 00:49:14;;;;;;;;;0.00;0.00;;;;;1.19;100.00;102352.91;5065328;28;46982;-96
2024/01/09 00:51:39;;;;;;;;;0.00;0.00;;;;;1.12;100.00;102345.00;5053073;28;44751;-95
2024/01/09 00:54:04;;;;;;;;;0.00;0.00;;;;;1.13;100.00;102354.44;5029743;28;70554;-96
2024/01/09 00:56:30;;;;;;;;;0.00;0.00;;;;;1.12;100.00;102354.38;5060735;28;45382;-96
2024/01/09 00:58:55;;;;;;;;;1.33;1.33;;;;;1.13;100.00;102354.44;5059309;28;58367;-96
2024/01/09 01:01:20;;;;;;;;;0.00;0.00;;;;;1.14;100.00;102350.19;5059625;28;45295;-96
2024/01/09 01:03:46;;;;;;;;;0.00;0.00;;;;;1.13;100.00;102356.13;5058092;28;57058;-96
2024/01/09 01:06:11;;;;;;;;;1.00;1.00;;;;;1.14;100.00;102347.63;5042149;28;45276;-96
2024/01/09 01:08:37;;;;;;;;;0.00;0.00;;;;;1.11;100.00;102347.50;5060384;28;50232;-96
2024/01/09 01:11:03;;;;;;;;;0.00;0.00;;;;;1.11;100.00;102350.06;5042633;28;45428;-96
2024/01/09 01:13:30;;;;;;;;;0.00;0.00;;;;;1.10;100.00;102348.31;5028920;28;45306;-96
2024/01/09 01:15:55;;;;;;;;;0.00;0.00;;;;;1.10;100.00;102349.19;5068699;28;45250;-96
2024/01/09 01:18:20;;;;;;;;;0.00;0.00;;;;;1.11;100.00;102347.50;5086680;28;64901;-96
2024/01/09 01:20:46;;;;;;;;;0.00;0.00;;;;;1.13;100.00;102350.97;5080925;28;45281;-96
2024/01/09 01:23:11;;;;;;;;;0.00;0.00;;;;;1.11;100.00;102347.50;5085868;28;45198;-96
2024/01/09 01:25:38;;;;;;;;;0.00;0.00;;;;;1.10;100.00;102343.19;5075956;27;45590;-96
2024/01/09 01:28:04;;;;;;;;;0.00;0.00;;;;;1.08;100.00;102340.56;5026244;28;48222;-96
2024/01/09 01:30:29;;;;;;;;;0.00;0.00;;;;;1.07;100.00;102343.94;5006715;28;45431;-96
2024/01/09 01:32:56;;;;;;;;;0.00;0.00;;;;;1.07;100.00;102346.50;5011723;28;60425;-96
2024/01/09 01:35:21;;;;;;;;;1.50;1.50;;;;;1.06;100.00;102344.78;5022516;28;45464;-96
2024/01/09 01:37:46;;;;;;;;;0.00;0.00;;;;;1.05;100.00;102343.03;5006099;28;64040;-96
2024/01/09 01:40:12;;;;;;;;;0.00;0.00;;;;;1.07;100.00;102348.22;5053869;28;45273;-96
2024/01/09 01:42:38;;;;;;;;;0.50;0.50;;;;;1.08;100.00;102347.41;5038635;28;45257;-96
2024/01/09 01:45:16;;;;;;;;;0.00;0.00;;;;;1.08;100.00;102342.28;5036585;28;54332;-96
2024/01/09 01:47:45;;;;;;;;;0.00;0.00;;;;;1.08;100.00;102340.56;5022556;28;46327;-96
2024/01/09 01:50:12;;;;;;;;;0.00;0.00;;;;;1.12;100.00;102349.25;5025988;28;45339;-96
2024/01/09 01:52:41;;;;;;;;;0.00;0.00;;;;;1.13;100.00;102351.88;5027801;28;45294;-96
2024/01/09 01:55:09;;;;;;;;;0.00;0.00;;;;;1.12;100.00;102352.69;5055874;28;45410;-96
2024/01/09 01:57:35;;;;;;;;;0.00;0.00;;;;;1.11;100.00;102353.50;5028790;28;47417;-96
2024/01/09 02:00:01;;;;;;;;;0.00;0.00;;;;;1.11;100.00;102355.19;5043848;28;45343;-96
2024/01/09 02:02:26;;;;;;;;;0.00;0.00;;;;;1.12;100.00;102349.25;5059775;28;45456;-96
2024/01/09 02:04:52;;;;;;;;;0.00;0.00;;;;;1.10;100.00;102359.44;5042339;28;50209;-96
2024/01/09 02:07:17;;;;;;;;;0.00;0.00;;;;;1.10;100.00;102349.19;5048963;28;46159;-96
2024/01/09 02:09:43;;;;;;;;;0.00;0.00;;;;;1.09;100.00;102349.13;5047229;28;61993;-96
2024/01/09 02:12:09;;;;;;;;;1.00;1.00;;;;;1.09;100.00;102359.38;5049465;28;45326;-95
2024/01/09 02:14:35;;;;;;;;;0.75;0.75;;;;;1.09;100.00;102356.81;5050006;28;44792;-96
2024/01/09 02:17:00;;;;;;;;;1.00;1.00;;;;;1.07;100.00;102348.22;5066866;28;46327;-96
2024/01/09 02:19:26;;;;;;;;;0.00;0.00;;;;;1.07;100.00;102348.22;5065532;28;48716;-96
2024/01/09 02:21:51;;;;;;;;;0.00;0.00;;;;;1.08;100.00;102344.84;5062985;28;47500;-96
2024/01/09 02:24:18;;;;;;;;;0.00;0.00;;;;;1.07;100.00;102349.06;5043555;28;45323;-96
2024/01/09 02:26:48;;;;;;;;;1.00;1.00;;;;;1.09;100.00;102344.88;5045621;28;46122;-96
2024/01/09 02:29:16;;;;;;;;;0.00;0.00;;;;;1.09;100.00;102349.13;5064001;28;45316;-96
2024/01/09 02:31:42;;;;;;;;;0.00;0.00;;;;;1.08;100.00;102343.13;5045092;28;45418;-96
2024/01/09 02:34:07;;;;;;;;;0.00;0.00;;;;;1.09;100.00;102346.56;5044739;28;45335;-96
2024/01/09 02:36:33;;;;;;;;;0.00;0.00;;;;;1.09;100.00;102347.44;5045779;28;47023;-96
2024/01/09 02:38:58;;;;;;;;;0.33;0.33;;;;;1.08;100.00;102349.97;5077575;28;58105;-96
2024/01/09 02:41:23;;;;;;;;;0.00;0.00;;;;;1.06;100.00;102336.19;5044669;28;45351;-96
2024/01/09 02:43:49;;;;;;;;;0.00;0.00;;;;;1.07;100.00;102348.22;5080370;28;45255;-96
2024/01/09 02:46:14;;;;;;;;;0.00;0.00;;;;;1.05;100.00;102340.47;5043624;28;68751;-96
2024/01/09 02:48:40;;;;;;;;;0.00;0.00;;;;;1.04;100.00;102342.97;5061675;28;45430;-96
2024/01/09 02:51:05;;;;;;;;;0.00;0.00;;;;;1.05;100.00;102342.16;5080638;28;52470;-96
2024/01/09 02:53:30;;;;;;;;;0.00;0.00;;;;;1.07;100.00;102337.94;5063759;28;45487;-96
2024/01/09 02:55:57;;;;;;;;;0.00;0.00;;;;;1.08;100.00;102340.56;5046654;28;52108;-96
2024/01/09 02:58:24;;;;;;;;;0.00;0.00;;;;;1.08;100.00;102337.16;5062128;28;45376;-96
2024/01/09 03:00:49;;;;;;;;;0.00;0.00;;;;;1.10;100.00;102345.75;5064850;28;45230;-96
2024/01/09 03:03:15;;;;;;;;;0.00;0.00;;;;;1.09;100.00;102344.88;5046328;28;45554;-96
2024/01/09 03:05:40;;;;;;;;;0.00;0.00;;;;;1.10;100.00;102335.50;5077223;28;48665;-96
2024/01/09 03:08:06;;;;;;;;;0.00;0.00;;;;;1.10;100.00;102338.94;5060787;28;45403;-96
2024/01/09 03:10:32;;;;;;;;;0.00;0.00;;;;;1.12;100.00;102341.56;5065825;28;45276;-96
2024/01/09 03:13:32;;;;;;;;;0.00;0.00;;;;;1.10;100.00;102331.25;5067151;28;45385;-96
2024/01/09 03:16:16;;;;;;;;;0.00;0.00;;;;;1.07;100.00;102331.13;5068356;28;46081;-96
2024/01/09 03:18:43;;;;;;;;;0.00;0.00;;;;;1.07;100.00;102328.56;5066949;28;45262;-96
2024/01/09 03:21:19;;;;;;;;;0.00;0.00;;;;;1.05;100.00;102325.06;5055097;28;45319;-96
2024/01/09 03:23:54;;;;;;;;;0.25;0.00;;;;;1.03;100.00;102313.88;5074541;28;49103;-96
2024/01/09 03:26:35;;;;;;;;;0.75;0.75;;;;;1.02;100.00;102319.81;5068895;28;46359;-96
2024/01/09 03:29:04;;;;;;;;;0.00;0.00;;;;;1.01;100.00;102330.03;5071030;28;45267;-96
2024/01/09 03:31:30;;;;;;;;;1.50;1.50;;;;;1.01;100.00;102325.78;5084196;28;45599;-96
2024/01/09 03:34:01;;;;;;;;;0.00;0.00;;;;;1.02;100.00;102324.09;5072169;28;45279;-96
2024/01/09 03:36:32;;;;;;;;;0.00;0.00;;;;;1.00;100.00;102324.03;5089663;28;45656;-96
2024/01/09 03:38:57;;;;;;;;;0.00;0.00;;;;;1.00;100.00;102330.84;5078790;28;45462;-96
2024/01/09 03:41:23;;;;;;;;;4.00;4.00;;;;;1.01;100.00;102330.03;5087546;28;44856;-96
2024/01/09 03:43:49;;;;;;;;;0.00;0.00;;;;;0.99;100.00;102327.41;5086648;28;45535;-96
2024/01/09 03:46:14;;;;;;;;;0.00;0.00;;;;;0.99;100.00;102327.41;5083152;28;47440;-96
2024/01/09 03:48:48;;;;;;;;;0.67;0.67;;;;;0.99;100.00;102316.31;5102670;27;49208;-96
2024/01/09 03:51:20;;;;;;;;;0.00;0.00;;;;;0.99;100.00;102316.31;5096349;27;45154;-96
2024/01/09 03:53:46;;;;;;;;;0.00;0.00;;;;;0.98;100.00;102323.09;5094945;28;69285;-96
2024/01/09 03:56:11;;;;;;;;;0.00;0.00;;;;;0.97;100.00;102313.69;5099480;27;69729;-96
2024/01/09 03:58:37;;;;;;;;;0.00;0.00;;;;;0.98;100.00;102312.84;5104458;27;45243;-96
2024/01/09 04:01:02;;;;;;;;;0.00;0.00;;;;;0.98;100.00;102309.41;5074356;28;45279;-96
2024/01/09 04:03:28;;;;;;;;;0.00;0.00;;;;;0.99;100.00;102308.59;5062645;28;45327;-96
2024/01/09 04:05:53;;;;;;;;;18.00;7.00;;;;;1.01;100.00;102305.28;5042154;28;47164;-96
2024/01/09 04:08:18;;;;;;;;;0.00;0.00;;;;;1.01;100.00;102309.53;5060283;28;67852;-96
2024/01/09 04:10:44;;;;;;;;;0.00;0.00;;;;;1.02;100.00;102308.69;5047143;28;58276;-96
2024/01/09 04:13:09;;;;;;;;;0.00;0.00;;;;;0.99;100.00;102308.59;5048376;28;45350;-96
2024/01/09 04:15:34;;;;;;;;;0.00;0.00;;;;;0.99;100.00;102311.19;5087145;28;65552;-96
2024/01/09 04:18:01;;;;;;;;;0.00;0.00;;;;;0.99;100.00;102314.59;5078401;28;45292;-96
2024/01/09 04:20:27;;;;;;;;;3.00;3.00;;;;;0.97;100.00;102316.25;5098538;28;45474;-96
2024/01/09 04:23:49;;;;;;;;;0.00;0.00;;;;;0.99;100.00;102312.03;5075118;28;44885;-96
2024/01/09 04:27:05;;;;;;;;;0.00;0.00;;;;;0.96;100.00;102317.03;5077078;28;45205;-96
2024/01/09 04:29:31;;;;;;;;;0.00;0.00;;;;;0.94;100.00;102316.97;5075675;28;45291;-96
2024/01/09 04:31:57;;;;;;;;;0.00;0.00;;;;;0.94;100.00;102309.28;5056246;28;45339;-96
2024/01/09 04:34:22;;;;;;;;;0.50;0.50;;;;;0.96;100.00;102317.03;5056702;28;45565;-96
2024/01/09 04:36:48;;;;;;;;;0.00;0.00;;;;;0.96;100.00;102312.78;5056808;28;47033;-96
2024/01/09 04:39:15;;;;;;;;;0.00;0.00;;;;;0.96;100.00;102314.47;5075976;28;45445;-96
2024/01/09 04:41:41;;;;;;;;;0.00;0.00;;;;;0.98;100.00;102317.97;5059814;28;45429;-96
2024/01/09 04:44:10;;;;;;;;;0.00;0.00;;;;;1.00;100.00;102318.03;5050546;28;45252;-96
2024/01/09 04:46:35;;;;;;;;;0.00;0.00;;;;;0.98;100.00;102320.53;5072335;28;46613;-96
2024/01/09 04:49:03;;;;;;;;;0.00;0.00;;;;;0.96;100.00;102311.91;5055995;28;45557;-96
2024/01/09 04:51:29;;;;;;;;;0.00;0.00;;;;;0.95;100.00;102315.31;5064989;28;44737;-96
2024/01/09 04:54:12;;;;;;;;;0.00;0.00;;;;;0.98;100.00;102315.41;5062991;28;45340;-96
2024/01/09 04:56:47;;;;;;;;;0.00;0.00;;;;;0.99;100.00;102319.72;5057732;28;46220;-96
2024/01/09 04:59:36;;;;;;;;;0.50;0.50;;;;;0.98;100.00;102320.53;5057558;28;44821;-96
2024/01/09 05:02:21;;;;;;;;;2.50;2.50;;;;;0.96;100.00;102317.91;5057896;28;45245;-96
2024/01/09 05:04:47;;;;;;;;;0.00;0.00;;;;;0.95;100.00;102311.06;5047569;28;45328;-96
2024/01/09 05:07:14;;;;;;;;;0.50;0.00;;;;;0.95;100.00;102310.19;5018276;28;46733;-96
2024/01/09 05:10:31;;;;;;;;;0.00;0.00;;;;;0.95;100.00;102308.50;5039259;28;51252;-96
2024/01/09 05:16:43;;;;;;;;;0.00;0.00;;;;;0.94;100.00;102311.84;5023239;28;45651;-96
2024/01/09 05:19:08;;;;;;;;;0.00;0.00;;;;;0.94;100.00;102316.13;5017871;28;66464;-96
2024/01/09 05:21:33;;;;;;;;;0.00;0.00;;;;;0.94;100.00;102309.28;5022929;28;74590;-96
2024/01/09 05:23:59;;;;;;;;;0.00;0.00;;;;;0.93;100.00;102312.69;5022849;28;66220;-96
2024/01/09 05:26:24;;;;;;;;;0.00;0.00;;;;;0.93;100.00;102306.69;5033985;28;44770;-96
2024/01/09 05:28:57;;;;;;;;;4.00;4.00;;;;;0.92;100.00;102307.50;5032275;28;64317;-96
2024/01/09 05:31:23;;;;;;;;;15.00;15.00;;;;;0.93;100.00;102315.25;5034536;28;45203;-96
2024/01/09 05:33:55;;;;;;;;;0.50;0.50;;;;;0.93;100.00;102314.38;5055189;28;45276;-96
2024/01/09 05:43:56;;;;;;;;;0.00;0.00;;;;;0.90;100.00;102309.16;5039155;28;44700;-96
2024/01/09 05:47:02;;;;;;;;;0.50;0.50;;;;;0.89;100.00;102303.16;5036112;28;45210;-96
2024/01/09 05:50:22;;;;;;;;;0.00;0.00;;;;;0.92;100.00;102303.25;5027911;28;45290;-96
2024/01/09 05:54:14;;;;;;;;;0.00;0.00;;;;;1.15;100.00;102303.16;5000007;28;45183;-96
2024/01/09 05:58:15;;;;;;;;;0.00;0.00;;;;;0.96;100.00;102307.66;4926170;28;44839;-96
2024/01/09 06:01:43;;;;;;;;;0.00;0.00;;;;;0.90;100.00;102302.31;4900745;29;44689;-96
2024/01/09 06:05:17;;;;;;;;;0.00;0.00;;;;;0.87;100.00;102302.19;4907417;28;44780;-96
2024/01/09 06:08:48;;;;;;;;;1.00;0.50;;;;;0.86;100.00;102310.72;4910996;29;45328;-96
2024/01/09 06:12:35;;;;;;;;;0.00;0.00;;;;;0.87;100.00;102309.03;4854130;29;44732;-96
2024/01/09 06:20:25;;;;;;;;;0.00;0.00;;;;;0.84;100.00;102301.25;5035173;28;45701;-95
2024/01/09 06:22:51;;;;;;;;;0.00;0.00;;;;;0.82;100.00;102306.31;5038247;28;44676;-96
2024/01/09 06:25:16;;;;;;;;;0.00;0.00;;;;;0.81;100.00;102307.09;5123402;22;45285;-96
2024/01/09 06:27:44;;;;;;;;;0.00;0.00;;;;;0.87;100.00;102314.16;5086095;28;45239;-96
2024/01/09 06:30:35;;;;;;;;;0.00;0.00;;;;;0.81;100.00;102306.25;5096293;28;46703;-96
2024/01/09 06:33:01;;;;;;;;;1.50;1.50;;;;;0.81;100.00;102308.81;5072626;28;44785;-96
2024/01/09 06:35:27;;;;;;;;;0.00;0.00;;;;;0.81;100.00;102308.81;5095392;28;45226;-96
2024/01/09 06:37:53;;;;;;;;;0.00;0.00;;;;;0.78;100.00;102304.47;5107599;27;44754;-96
2024/01/09 06:40:20;;;;;;;;;0.00;0.00;;;;;0.79;100.00;102302.75;5072706;28;45344;-96
2024/01/09 06:42:48;;;;;;;;;0.00;0.00;;;;;0.86;100.00;102318.41;5066125;28;45387;-88
2024/01/09 06:45:20;;;;;;;;;0.00;0.00;;;;;0.82;100.00;102308.88;5091221;28;44888;-95
2024/01/09 06:47:45;;;;;;;;;0.00;0.00;;;;;0.78;100.00;102307.03;5101689;27;44869;-96
2024/01/09 06:50:11;;;;;;;;;3.00;0.75;;;;;0.85;100.00;102308.09;5070729;28;47346;-96
2024/01/09 06:52:38;;;;;;;;;0.00;0.00;;;;;0.86;100.00;102323.53;5073552;28;45394;-96
2024/01/09 06:55:04;;;;;;;;;0.00;0.00;;;;;0.83;100.00;102312.31;5067137;28;45473;-93
2024/01/09 06:57:29;;;;;;;;;2.00;2.00;;;;;0.86;100.00;102318.41;5078234;28;45430;-95
2024/01/09 06:59:55;;;;;;;;;0.00;0.00;;;;;0.84;100.00;102308.94;5048536;28;47885;-95
2024/01/09 07:02:21;;;;;;;;;0.00;0.00;;;;;0.87;100.00;102316.72;5067969;28;55181;-94
2024/01/09 07:04:46;;;;;;;;;0.00;0.00;;;;;0.87;100.00;102316.72;5062703;28;45409;-91
2024/01/09 07:07:12;;;;;;;;;1.00;1.00;;;;;0.89;100.00;102318.53;5062441;28;45325;-91
2024/01/09 07:09:38;;;;;;;;;0.00;0.00;;;;;0.90;100.00;102314.28;5081256;28;45399;-91
2024/01/09 07:12:05;;;;;;;;;1.00;1.00;;;;;0.90;100.00;102315.13;5062890;28;45291;-91
2024/01/09 07:14:31;;;;;;;;;0.00;0.00;;;;;0.90;100.00;102316.84;5077359;28;45368;-91
2024/01/09 07:16:56;;;;;;;;;0.00;0.00;;;;;0.89;100.00;102323.66;5075251;28;45417;-91
2024/01/09 07:19:22;;;;;;;;;11.00;11.00;;;;;0.89;100.00;102321.09;5075961;28;48212;-93
2024/01/09 07:21:50;;;;;;;;;0.00;0.00;;;;;0.88;100.00;102323.59;5062102;28;53228;-94
2024/01/09 07:24:15;;;;;;;;;2.50;0.00;;;;;0.89;100.00;102327.91;5089292;27;45326;-91
2024/01/09 07:26:42;;;;;;;;;0.00;0.00;;;;;0.87;100.00;102324.41;5073428;28;49295;-93
2024/01/09 07:29:07;;;;;;;;;0.00;0.00;;;;;0.87;100.00;102326.97;5047371;28;46535;-96
2024/01/09 07:31:33;;;;;;;;;0.00;0.00;;;;;0.84;100.00;102327.75;5068429;27;46177;-92
2024/01/09 07:33:58;;;;;;;;;2.50;0.00;;;;;0.82;100.00;102321.69;5080268;27;45299;-94
2024/01/09 07:36:23;;;;;;;;;6.00;1.00;;;;;0.82;100.00;102323.34;5079929;27;55639;-94
2024/01/09 07:38:49;;;;;;;;;0.00;0.00;;;;;0.79;100.00;102324.13;5097800;27;57545;-94
2024/01/09 07:41:17;;;;;;;;;0.00;0.00;;;;;0.79;100.00;102325.81;5047092;28;68395;-93
2024/01/09 07:43:43;;;;;;;;;0.00;0.00;;;;;0.81;100.00;102329.31;5042412;28;45498;-96
2024/01/09 07:46:08;;;;;;;;;1.00;1.00;;;;;0.80;100.00;102328.44;5057691;28;45282;-93
2024/01/09 07:48:33;;;;;;;;;3.00;3.00;;;;;0.80;100.00;102332.69;5040065;28;68578;-96
2024/01/09 07:51:01;;;;;;;;;3.00;3.00;;;;;0.80;100.00;102336.16;5066609;28;45401;-93
2024/01/09 07:53:26;;;;;;;;;0.00;0.00;;;;;0.81;100.00;102329.31;5059812;28;45360;-95
2024/01/09 07:55:52;;;;;;;;;0.00;0.00;;;;;0.81;100.00;102337.00;5047574;28;45421;-96
2024/01/09 07:58:17;;;;;;;;;3.00;3.00;;;;;0.81;100.00;102331.88;5078971;28;45661;-96
2024/01/09 08:00:43;;;;;;;;;0.00;0.00;;;;;0.83;100.00;102335.38;5081587;28;45289;-96
2024/01/09 08:03:08;;;;;;;;;1.00;1.00;;;;;0.85;100.00;102334.59;5063857;28;45343;-96
2024/01/09 08:05:37;;;;;;;;;0.00;0.00;;;;;0.84;100.00;102340.56;5065371;28;45438;-95
2024/01/09 08:08:02;;;;;;;;;0.00;0.00;;;;;0.82;100.00;102342.19;5043534;28;46342;-90
2024/01/09 08:10:28;;;;;;;;;0.00;0.00;;;;;0.82;100.00;102344.75;5080420;28;45423;-92
2024/01/09 08:12:53;;;;;;;;;1.00;0.00;;;;;0.83;100.00;102343.06;5063528;28;45316;-89
2024/01/09 08:15:18;;;;;;;;;0.00;0.00;;;;;0.84;100.00;102344.81;5068809;28;45776;-92
2024/01/09 08:17:44;;;;;;;;;0.00;0.00;;;;;0.84;100.00;102338.00;5059191;28;46171;-92
2024/01/09 08:20:10;;;;;;;;;0.00;0.00;;;;;0.84;100.00;102344.81;5080920;27;45306;-91
2024/01/09 08:22:35;;;;;;;;;1.00;1.00;;;;;0.86;100.00;102348.31;5073194;27;45331;-95
2024/01/09 08:25:00;;;;;;;;;0.00;0.00;;;;;0.84;100.00;102347.38;5091293;27;51809;-92
2024/01/09 08:27:26;;;;;;;;;0.00;0.00;;;;;0.80;100.00;102351.53;5074687;28;66388;-92
2024/01/09 08:29:51;;;;;;;;;0.00;0.00;;;;;0.80;100.00;102351.53;5079029;28;45813;-94
2024/01/09 08:32:18;;;;;;;;;0.00;0.00;;;;;0.80;100.00;102354.09;5084752;27;45400;-93
2024/01/09 08:34:43;;;;;;;;;0.25;0.25;;;;;0.81;100.00;102352.38;5102755;27;45465;-96
2024/01/09 08:37:09;;;;;;;;;0.00;0.00;;;;;0.82;100.00;102352.44;5059965;28;46286;-94
2024/01/09 08:39:34;;;;;;;;;0.00;0.00;;;;;0.85;100.00;102357.66;5079515;27;45379;-94
2024/01/09 08:41:59;;;;;;;;;0.00;0.00;;;;;0.88;100.00;102364.63;5075654;27;67603;-93
2024/01/09 08:44:27;;;;;;;;;0.00;0.00;;;;;0.88;100.00;102372.31;5073778;28;45502;-92
2024/01/09 08:46:52;;;;;;;;;0.00;0.00;;;;;0.87;100.00;102366.28;5078640;28;46187;-92
2024/01/09 08:49:17;;;;;;;;;2.75;2.75;;;;;0.86;100.00;102369.69;5075316;27;45326;-93
2024/01/09 08:51:43;;;;;;;;;0.00;0.00;;;;;0.87;100.00;102365.44;5070586;27;47040;-93
2024/01/09 08:54:09;;;;;;;;;2.33;2.33;;;;;0.87;100.00;102365.44;5059663;28;57066;-94
2024/01/09 08:56:34;;;;;;;;;0.00;0.00;;;;;0.88;100.00;102359.50;5078083;27;58031;-93
2024/01/09 08:59:00;;;;;;;;;0.00;0.00;;;;;0.90;100.00;102368.97;5077621;27;45522;-94
2024/01/09 09:01:26;;;;;;;;;0.00;0.00;;;;;0.93;100.00;102371.66;5070270;28;45334;-94
2024/01/09 09:03:51;;;;;;;;;0.00;0.00;;;;;0.94;100.00;102368.25;5076158;28;60756;-95
2024/01/09 09:06:17;;;;;;;;;0.00;0.00;;;;;0.96;100.00;102364.06;5078818;28;45424;-94
2024/01/09 09:08:43;;;;;;;;;0.00;0.00;;;;;0.96;100.00;102364.06;5074094;28;45276;-94
2024/01/09 09:11:08;;;;;;;;;0.00;0.00;;;;;0.95;100.00;102374.28;5095785;27;45532;-94
2024/01/09 09:13:34;;;;;;;;;1.50;1.50;;;;;0.99;100.00;102371.03;5080944;27;45236;-94
2024/01/09 09:15:59;;;;;;;;;3.25;2.25;;;;;1.00;100.00;102372.75;5079579;28;58203;-96
2024/01/09 09:18:24;;;;;;;;;0.00;0.00;;;;;1.00;100.00;102375.31;5083182;27;45237;-95
2024/01/09 09:20:50;;;;;;;;;3.00;1.00;;;;;0.98;100.00;102366.69;5078790;28;45602;-95
2024/01/09 09:23:15;;;;;;;;;1.00;0.00;;;;;1.00;100.00;102370.19;5083133;28;52630;-96
2024/01/09 09:25:40;;;;;;;;;0.00;0.00;;;;;1.04;100.00;102368.59;5077268;27;66225;-96
2024/01/09 09:28:06;;;;;;;;;0.00;0.00;;;;;1.11;100.00;102371.44;5041925;28;70650;-95
2024/01/09 09:30:32;;;;;;;;;0.00;0.00;;;;;1.19;100.00;102365.72;5038939;28;45371;-95
2024/01/09 09:32:58;;;;;;;;;0.00;0.00;;;;;1.23;100.00;102368.47;5058714;28;45351;-95
2024/01/09 09:35:23;;;;;;;;;2.25;0.00;;;;;1.32;100.00;102365.38;5057611;28;46658;-95
2024/01/09 09:37:49;;;;;;;;;0.00;0.00;;;;;1.41;100.00;102365.69;5041964;28;45556;-96
2024/01/09 09:40:14;;;;;;;;;0.00;0.00;;;;;1.46;100.00;102369.25;5042352;28;63005;-92
2024/01/09 09:42:42;;;;;;;;;0.00;0.00;;;;;1.53;100.00;102366.09;5043411;28;45358;-95
2024/01/09 09:45:11;;;;;;;;;0.00;0.00;;;;;1.58;100.00;102363.69;5057728;28;47203;-95
2024/01/09 09:47:38;;;;;;;;;0.00;0.00;;;;;1.58;100.00;102348.28;5054219;28;45405;-93
2024/01/09 09:50:04;;;;;;;;;0.00;0.00;;;;;1.62;100.00;102360.41;5044009;28;45492;-94
2024/01/09 09:52:30;;;;;;;;;0.25;0.00;;;;;1.69;100.00;102359.78;5073825;28;45438;-91
2024/01/09 09:54:57;;;;;;;;;1.00;1.00;;;;;1.73;100.00;102361.63;5074099;28;73952;-93
2024/01/09 09:57:22;;;;;;;;;0.00;0.00;;;;;1.76;100.00;102366.00;5072612;28;61605;-93
2024/01/09 09:59:48;;;;;;;;;1.00;0.00;;;;;1.78;100.00;102360.91;5067277;28;45393;-93
2024/01/09 10:02:22;;;;;;;;;1.00;0.00;;;;;1.78;100.00;102364.34;5069908;28;45166;-94
2024/01/09 10:04:49;;;;;;;;;0.00;0.00;;;;;1.78;100.00;102358.34;5057543;28;47127;-95
2024/01/09 10:07:20;;;;;;;;;1.00;1.00;;;;;1.76;100.00;102358.28;5077758;27;45313;-94
2024/01/09 10:09:51;;;;;;;;;0.00;0.00;;;;;1.76;100.00;102358.28;5059952;28;45461;-96
2024/01/09 10:12:22;;;;;;;;;0.00;0.00;;;;;1.76;100.00;102363.41;5068610;28;45543;-94
2024/01/09 10:15:17;;;;;;;;;1.00;0.00;;;;;1.77;100.00;102359.19;5061424;28;46381;-91
2024/01/09 10:17:49;;;;;;;;;0.00;0.00;;;;;1.72;100.00;102351.31;5021786;28;45436;-92
2024/01/09 10:20:16;;;;;;;;;0.00;0.00;;;;;1.69;100.00;102352.09;5065728;28;45363;-93
2024/01/09 10:22:41;;;;;;;;;0.00;0.00;;;;;1.71;100.00;102357.28;5057829;28;45327;-92
2024/01/09 10:25:09;;;;;;;;;0.00;0.00;;;;;1.69;100.00;102354.66;5086945;27;46995;-94
2024/01/09 10:27:43;;;;;;;;;3.50;2.50;;;;;1.67;100.00;102350.28;5062398;27;45420;-91
2024/01/09 10:30:13;;;;;;;;;0.00;0.00;;;;;1.67;100.00;102355.41;5059030;28;45282;-95
2024/01/09 10:32:40;;;;;;;;;4.00;4.00;;;;;1.64;100.00;102348.50;5069056;28;45295;-95
2024/01/09 10:35:07;;;;;;;;;0.00;0.00;;;;;1.60;100.00;102341.50;5073552;28;48424;-95
2024/01/09 10:37:33;;;;;;;;;2.00;2.00;;;;;1.64;100.00;102350.19;5069554;28;45385;-95
2024/01/09 10:39:59;;;;;;;;;0.00;0.00;;;;;1.57;100.00;102341.41;5085774;27;45427;-94
2024/01/09 10:42:25;;;;;;;;;0.00;0.00;;;;;1.59;100.00;102347.44;5078888;27;45253;-96
2024/01/09 10:44:58;;;;;;;;;0.00;0.00;;;;;1.61;100.00;102343.25;5076546;28;45758;-96
2024/01/09 10:47:24;;;;;;;;;0.00;0.00;;;;;1.60;100.00;102340.63;5087928;27;45213;-95
2024/01/09 10:49:51;;;;;;;;;0.00;0.00;;;;;1.56;100.00;102334.53;5068466;28;45420;-94
2024/01/09 10:52:17;;;;;;;;;9.00;1.00;;;;;1.59;100.00;102344.88;5076947;27;45524;-90
2024/01/09 10:54:48;;;;;;;;;0.00;0.00;;;;;1.54;100.00;102337.06;5067239;28;48085;-96
2024/01/09 10:57:17;;;;;;;;;0.00;0.00;;;;;1.53;100.00;102335.28;5060827;28;45355;-95
2024/01/09 10:59:43;;;;;;;;;0.00;0.00;;;;;1.53;100.00;102339.56;5060536;28;45578;-92
2024/01/09 11:02:20;;;;;;;;;2.00;2.00;;;;;1.52;100.00;102333.56;5077743;28;45421;-87
2024/01/09 11:04:52;;;;;;;;;1.00;0.00;;;;;1.50;100.00;102331.75;5072890;28;45287;-95
2024/01/09 11:07:18;;;;;;;;;3.00;3.00;;;;;1.48;100.00;102325.69;5081498;28;45451;-96
2024/01/09 11:09:45;;;;;;;;;0.00;0.00;;;;;1.48;100.00;102334.25;5060355;28;45669;-92
2024/01/09 11:12:23;;;;;;;;;0.00;0.00;;;;;1.51;100.00;102333.50;5073232;28;46617;-94
2024/01/09 11:14:53;;;;;;;;;0.50;0.50;;;;;1.51;100.00;102329.22;5078222;27;45600;-90
2024/01/09 11:17:19;;;;;;;;;0.00;0.00;;;;;1.50;100.00;102331.75;5081350;28;45367;-94
2024/01/09 11:19:45;;;;;;;;;2.00;2.00;;;;;1.49;100.00;102312.91;5075737;27;45435;-87
2024/01/09 11:22:18;;;;;;;;;0.00;0.00;;;;;1.62;100.00;102321.03;5073497;28;45625;-90
2024/01/09 11:24:50;;;;;;;;;0.00;0.00;;;;;1.70;100.00;102333.28;5057121;28;46104;-88
2024/01/09 11:27:18;;;;;;;;;7.00;7.00;;;;;1.77;100.00;102336.06;5076545;28;45411;-89
2024/01/09 11:29:51;;;;;;;;;3.00;3.00;;;;;1.82;100.00;102331.94;5079329;28;45409;-89
2024/01/09 11:32:17;;;;;;;;;0.00;0.00;;;;;1.93;100.00;102339.19;5063042;28;45673;-89
2024/01/09 11:35:07;;;;;;;;;0.00;0.00;;;;;2.07;100.00;102325.91;5062764;28;45381;-86
2024/01/09 11:37:32;;;;;;;;;0.00;0.00;;;;;2.18;100.00;102332.25;5077929;28;45338;-87
2024/01/09 11:39:59;;;;;;;;;0.00;0.00;;;;;2.26;100.00;102325.63;5032399;28;46927;-85
2024/01/09 11:42:25;;;;;;;;;0.00;0.00;;;;;2.38;100.00;102327.72;5078697;28;45287;-87
2024/01/09 11:44:50;;;;;;;;;0.50;0.50;;;;;2.42;100.00;102316.72;5062039;28;63034;-89
2024/01/09 11:47:16;;;;;;;;;0.00;0.00;;;;;2.60;100.00;102323.22;5043551;28;68596;-88
2024/01/09 11:49:42;;;;;;;;;1.00;1.00;;;;;2.81;100.00;102321.28;5052736;28;67931;-90
2024/01/09 11:52:08;;;;;;;;;0.00;0.00;;;;;3.02;100.00;102318.41;5042021;28;45340;-88